Time;durP1;ratioP1;P1;durP2;ratioP2;P2;SDS_P1;SDS_P2;PMS_P1;PMS_P2;Temp;Humidity;BMP_temperature;BMP_pressure;BME280_temperature;BME280_humidity;BME280_pressure;Samples;Min_cycle;Max_cycle;Signal;HPM_P1;HPM_P2
2023/02/06 00:01:40;;;;;;;36.65;14.50;;;3.50;1.00;;;;;;5031031;28;20394;-58
2023/02/06 00:04:06;;;;;;;39.73;15.10;;;4.20;1.00;;;;;;5030601;28;20498;-58
2023/02/06 00:06:32;;;;;;;36.15;13.77;;;4.90;1.00;;;;;;5030169;28;20956;-58
2023/02/06 00:08:57;;;;;;;34.28;13.82;;;3.60;1.00;;;;;;5031266;28;20449;-58
2023/02/06 00:11:23;;;;;;;32.40;13.80;;;5.60;99.90;;;;;;5030103;28;20395;-58
2023/02/06 00:13:49;;;;;;;29.50;14.48;;;4.30;99.90;;;;;;5030480;28;20401;-58
2023/02/06 00:16:21;;;;;;;34.25;14.32;;;3.50;99.90;;;;;;5029867;28;20466;-58
2023/02/06 00:18:46;;;;;;;32.92;14.73;;;3.50;99.90;;;;;;5030672;28;20886;-58
2023/02/06 00:21:12;;;;;;;32.75;14.38;;;5.30;99.90;;;;;;5030532;28;20415;-58
2023/02/06 00:23:38;;;;;;;32.92;14.02;;;4.00;99.90;;;;;;5030968;28;20458;-58
2023/02/06 00:26:05;;;;;;;39.42;16.55;;;3.40;1.00;;;;;;5030848;28;20437;-58
2023/02/06 00:28:31;;;;;;;37.55;16.02;;;3.50;1.00;;;;;;5029484;28;20387;-58
2023/02/06 00:30:57;;;;;;;38.90;15.80;;;4.90;99.90;;;;;;5030380;28;20386;-60
2023/02/06 00:33:22;;;;;;;36.83;14.73;;;3.50;1.00;;;;;;5029462;28;20474;-58
2023/02/06 00:35:48;;;;;;;38.70;16.10;;;4.90;99.90;;;;;;5037067;28;20463;-59
2023/02/06 00:38:14;;;;;;;40.23;17.23;;;3.50;1.00;;;;;;5049053;28;20378;-58
2023/02/06 00:40:39;;;;;;;32.63;15.05;;;3.40;1.00;;;;;;5049351;28;20374;-58
2023/02/06 00:43:05;;;;;;;37.92;16.17;;;3.40;1.00;;;;;;5050164;28;20424;-58
2023/02/06 00:45:30;;;;;;;45.70;16.30;;;3.40;1.00;;;;;;5048895;28;20989;-58
2023/02/06 00:47:56;;;;;;;40.42;16.90;;;3.30;1.00;;;;;;5050160;28;20386;-58
2023/02/06 00:50:22;;;;;;;40.50;16.40;;;3.80;1.00;;;;;;5049368;28;20386;-58
2023/02/06 00:52:47;;;;;;;37.00;14.57;;;3.40;1.00;;;;;;5050011;28;20435;-58
2023/02/06 00:55:13;;;;;;;42.17;15.07;;;3.40;1.00;;;;;;5049502;28;20381;-58
2023/02/06 00:57:38;;;;;;;44.53;17.65;;;3.20;1.00;;;;;;5049717;28;20392;-58
2023/02/06 01:00:07;;;;;;;37.47;16.80;;;3.10;1.00;;;;;;5049487;28;20382;-58
2023/02/06 01:02:33;;;;;;;41.58;17.10;;;3.20;1.00;;;;;;5049077;28;20412;-58
2023/02/06 01:04:58;;;;;;;41.53;17.02;;;5.40;1.00;;;;;;5050060;28;20615;-58
2023/02/06 01:07:24;;;;;;;40.37;16.63;;;3.40;1.00;;;;;;5049301;28;20801;-58
2023/02/06 01:09:50;;;;;;;40.43;15.57;;;3.40;1.00;;;;;;5049886;28;20380;-58
2023/02/06 01:12:16;;;;;;;46.72;17.55;;;3.40;1.00;;;;;;5048273;28;20439;-58
2023/02/06 01:14:41;;;;;;;44.33;17.60;;;4.20;1.00;;;;;;5049613;28;20854;-58
2023/02/06 01:17:09;;;;;;;41.43;16.00;;;3.40;1.00;;;;;;5050110;28;20851;-58
2023/02/06 01:19:36;;;;;;;36.13;15.70;;;3.50;1.00;;;;;;5049499;28;20360;-58
2023/02/06 01:22:02;;;;;;;38.55;15.00;;;3.30;1.00;;;;;;5049868;28;20457;-58
2023/02/06 01:24:28;;;;;;;42.67;16.55;;;4.70;1.00;;;;;;5049241;28;20523;-58
2023/02/06 01:26:53;;;;;;;36.58;15.88;;;3.20;1.00;;;;;;5049839;28;20406;-58
2023/02/06 01:29:19;;;;;;;45.57;17.67;;;3.20;1.00;;;;;;5049325;28;20373;-58
2023/02/06 01:31:45;;;;;;;44.17;15.82;;;3.20;1.00;;;;;;5049918;28;20398;-58
2023/02/06 01:34:11;;;;;;;42.17;16.27;;;3.10;1.00;;;;;;5050114;28;20829;-58
2023/02/06 01:36:37;;;;;;;40.83;16.10;;;4.40;1.00;;;;;;5048977;28;20553;-58
2023/02/06 01:39:04;;;;;;;38.47;15.63;;;3.10;1.00;;;;;;5049637;28;20538;-58
2023/02/06 01:41:29;;;;;;;44.05;16.00;;;3.20;1.00;;;;;;5047504;28;20459;-58
2023/02/06 01:44:22;;;;;;;38.47;16.05;;;3.20;1.00;;;;;;5050047;28;20417;-58
2023/02/06 01:46:51;;;;;;;38.85;16.67;;;3.30;1.00;;;;;;5049876;28;20774;-58
2023/02/06 01:49:37;;;;;;;40.25;16.40;;;4.10;1.00;;;;;;5049129;28;20369;-58
2023/02/06 01:52:17;;;;;;;40.25;17.35;;;3.30;1.00;;;;;;5049346;28;20870;-59
2023/02/06 01:54:47;;;;;;;39.42;15.05;;;3.30;1.00;;;;;;5049341;28;20447;-58
2023/02/06 01:57:14;;;;;;;39.33;17.98;;;3.30;1.00;;;;;;5049466;28;20385;-58
2023/02/06 01:59:42;;;;;;;38.65;16.25;;;3.40;1.00;;;;;;5048861;28;20381;-58
2023/02/06 02:02:08;;;;;;;38.13;15.70;;;3.50;1.00;;;;;;5049207;28;20858;-58
2023/02/06 02:04:34;;;;;;;41.95;16.88;;;3.40;1.00;;;;;;5048515;28;20427;-58
2023/02/06 02:07:21;;;;;;;39.17;17.17;;;3.40;1.00;;;;;;5050062;28;20401;-58
2023/02/06 02:09:47;;;;;;;50.00;17.40;;;3.30;1.00;;;;;;5049308;28;20377;-58
2023/02/06 02:12:13;;;;;;;42.17;17.65;;;3.30;1.00;;;;;;5049478;28;20377;-58
2023/02/06 02:14:41;;;;;;;43.70;18.38;;;3.10;1.00;;;;;;5049022;28;20382;-58
2023/02/06 02:17:47;;;;;;;44.65;18.02;;;3.10;1.00;;;;;;5049051;28;20432;-58
2023/02/06 02:20:39;;;;;;;44.08;18.10;;;4.60;1.00;;;;;;5043682;28;20393;-58
2023/02/06 02:23:24;;;;;;;41.97;17.70;;;3.20;1.00;;;;;;5051326;28;20774;-59
2023/02/06 02:26:17;;;;;;;43.63;17.10;;;3.20;1.00;;;;;;5052947;28;20401;-59
2023/02/06 02:29:07;;;;;;;43.33;17.83;;;3.30;1.00;;;;;;5053016;28;20412;-58
2023/02/06 02:32:04;;;;;;;41.40;16.40;;;3.30;1.00;;;;;;5052824;28;20385;-58
2023/02/06 02:34:48;;;;;;;41.08;16.02;;;3.40;1.00;;;;;;5051463;28;20465;-58
2023/02/06 02:37:22;;;;;;;40.27;17.77;;;3.30;1.00;;;;;;5052504;28;20477;-59
2023/02/06 02:40:18;;;;;;;39.92;16.52;;;3.30;1.00;;;;;;5052397;28;20456;-58
2023/02/06 02:43:01;;;;;;;40.33;15.77;;;3.30;1.00;;;;;;5052621;28;20382;-59
2023/02/06 02:45:47;;;;;;;42.13;17.42;;;3.30;1.00;;;;;;5051781;28;20438;-58
2023/02/06 02:48:29;;;;;;;35.55;15.98;;;3.40;1.00;;;;;;5052888;28;20385;-59
2023/02/06 02:50:57;;;;;;;37.03;17.17;;;3.40;1.00;;;;;;5052793;28;21213;-59
2023/02/06 02:53:23;;;;;;;38.58;15.55;;;3.60;1.00;;;;;;5051440;28;20370;-58
2023/02/06 02:55:48;;;;;;;36.37;15.53;;;3.60;1.00;;;;;;5052015;28;20451;-58
2023/02/06 02:58:21;;;;;;;37.30;17.10;;;4.50;99.90;;;;;;5052161;28;20831;-58
2023/02/06 03:01:10;;;;;;;36.25;15.52;;;3.70;99.90;;;;;;5052001;28;20388;-58
2023/02/06 03:03:38;;;;;;;41.30;16.07;;;3.60;99.90;;;;;;5051053;28;20496;-58
2023/02/06 03:06:21;;;;;;;45.67;17.10;;;3.50;1.00;;;;;;5051959;28;20381;-58
2023/02/06 03:09:01;;;;;;;44.05;17.40;;;3.40;1.00;;;;;;5052194;28;20545;-58
2023/02/06 03:11:28;;;;;;;43.88;16.85;;;3.40;1.00;;;;;;5051493;28;20480;-58
2023/02/06 03:14:04;;;;;;;43.28;17.33;;;3.40;1.00;;;;;;5051630;28;20870;-58
2023/02/06 03:16:52;;;;;;;37.97;16.65;;;3.50;1.00;;;;;;5051352;28;20786;-58
2023/02/06 03:19:30;;;;;;;43.45;18.77;;;3.50;1.00;;;;;;5051721;28;20424;-58
2023/02/06 03:21:56;;;;;;;36.95;15.70;;;3.50;1.00;;;;;;5052116;28;20374;-58
2023/02/06 03:24:29;;;;;;;35.67;15.90;;;4.20;1.00;;;;;;5050825;28;20507;-58
2023/02/06 03:26:58;;;;;;;36.95;16.10;;;4.70;99.90;;;;;;5051549;28;20402;-58
2023/02/06 03:29:26;;;;;;;39.85;18.27;;;4.40;99.90;;;;;;5050817;28;20453;-58
2023/02/06 03:31:56;;;;;;;37.65;17.30;;;3.30;1.00;;;;;;5048533;28;20487;-58
2023/02/06 03:34:24;;;;;;;44.25;17.67;;;4.60;1.00;;;;;;5050360;28;20375;-58
2023/02/06 03:36:51;;;;;;;36.50;16.85;;;5.40;1.00;;;;;;5048071;28;20373;-59
2023/02/06 03:39:18;;;;;;;35.78;16.00;;;3.30;1.00;;;;;;5050576;28;20382;-58
2023/02/06 03:41:45;;;;;;;35.47;17.30;;;3.20;1.00;;;;;;5051101;28;20858;-58
2023/02/06 03:44:15;;;;;;;38.83;17.58;;;3.30;1.00;;;;;;5048164;28;20413;-59
2023/02/06 03:46:43;;;;;;;39.22;17.70;;;3.40;1.00;;;;;;5050897;28;20381;-58
2023/02/06 03:49:11;;;;;;;39.42;17.20;;;3.40;1.00;;;;;;5050961;28;20401;-59
2023/02/06 03:51:49;;;;;;;43.13;18.08;;;3.40;99.90;;;;;;5050141;28;21070;-58
2023/02/06 03:54:18;;;;;;;39.60;16.65;;;3.30;1.00;;;;;;5048460;28;20425;-58
2023/02/06 03:56:56;;;;;;;35.90;17.08;;;5.00;1.00;;;;;;5050681;28;20389;-57
2023/02/06 03:59:22;;;;;;;40.42;16.27;;;3.10;1.00;;;;;;5048910;28;20475;-58
2023/02/06 04:01:52;;;;;;;36.25;15.35;;;3.50;1.00;;;;;;5050244;28;20739;-57
2023/02/06 04:04:23;;;;;;;35.60;15.90;;;4.40;1.00;;;;;;5048861;28;20936;-57
2023/02/06 04:06:49;;;;;;;36.10;17.05;;;4.20;1.00;;;;;;5049641;28;20390;-58
2023/02/06 04:09:17;;;;;;;38.73;17.00;;;2.80;1.00;;;;;;5050859;28;20385;-58
2023/02/06 04:11:43;;;;;;;38.10;16.45;;;2.80;1.00;;;;;;5049825;28;20412;-58
2023/02/06 04:14:08;;;;;;;39.53;17.13;;;2.80;1.00;;;;;;5050177;28;20382;-57
2023/02/06 04:16:34;;;;;;;40.17;18.23;;;3.90;1.00;;;;;;5049892;28;21095;-57
2023/02/06 04:19:00;;;;;;;35.50;16.57;;;2.90;1.00;;;;;;5050785;28;20472;-57
2023/02/06 04:21:25;;;;;;;34.60;15.40;;;2.90;1.00;;;;;;5049655;28;20927;-57
2023/02/06 04:23:51;;;;;;;40.10;17.87;;;3.00;1.00;;;;;;5049898;28;20445;-57
2023/02/06 04:26:16;;;;;;;35.00;17.33;;;2.90;1.00;;;;;;5048872;28;20724;-58
2023/02/06 04:28:42;;;;;;;35.50;15.87;;;2.90;1.00;;;;;;5050484;28;20413;-57
2023/02/06 04:31:07;;;;;;;34.50;16.20;;;2.80;1.00;;;;;;5053603;28;20384;-59
2023/02/06 04:33:33;;;;;;;33.50;15.80;;;2.70;1.00;;;;;;5069171;28;20770;-58
2023/02/06 04:35:58;;;;;;;33.03;15.60;;;2.60;1.00;;;;;;5070348;28;20380;-58
2023/02/06 04:38:24;;;;;;;40.10;17.90;;;2.70;1.00;;;;;;5069520;28;20530;-57
2023/02/06 04:40:50;;;;;;;39.73;17.70;;;2.70;1.00;;;;;;5062654;28;20794;-57
2023/02/06 04:43:16;;;;;;;37.40;16.13;;;2.70;1.00;;;;;;5050115;28;20378;-58
2023/02/06 04:45:41;;;;;;;38.33;18.08;;;2.70;1.00;;;;;;5050521;28;20390;-57
2023/02/06 04:48:07;;;;;;;40.67;17.57;;;2.70;1.00;;;;;;5050252;28;20435;-58
2023/02/06 04:50:33;;;;;;;39.08;16.88;;;2.70;1.00;;;;;;5049677;28;20891;-58
2023/02/06 04:52:59;;;;;;;35.75;17.38;;;4.70;1.00;;;;;;5070323;28;20434;-58
2023/02/06 04:55:25;;;;;;;35.25;15.55;;;2.50;1.00;;;;;;5069616;28;20379;-58
2023/02/06 04:57:50;;;;;;;33.38;15.45;;;2.50;1.00;;;;;;5070148;28;20818;-59
2023/02/06 05:00:16;;;;;;;38.23;16.80;;;2.60;1.00;;;;;;5067373;28;20376;-59
2023/02/06 05:02:42;;;;;;;37.25;15.52;;;1.40;1.00;;;;;;5069836;28;20884;-58
2023/02/06 05:05:08;;;;;;;35.67;16.23;;;2.70;1.00;;;;;;5069784;28;20403;-59
2023/02/06 05:07:35;;;;;;;36.97;16.10;;;2.70;1.00;;;;;;5069519;28;20375;-59
2023/02/06 05:10:01;;;;;;;35.28;17.25;;;2.70;1.00;;;;;;5056382;28;20405;-59
2023/02/06 05:12:27;;;;;;;33.13;15.93;;;2.70;1.00;;;;;;5048378;28;20394;-59
2023/02/06 05:14:53;;;;;;;37.83;17.38;;;3.70;1.00;;;;;;5049318;28;20381;-60
2023/02/06 05:17:19;;;;;;;34.72;18.05;;;2.80;1.00;;;;;;5048998;28;20381;-59
2023/02/06 05:19:45;;;;;;;37.80;16.10;;;2.70;1.00;;;;;;5049048;28;20431;-59
2023/02/06 05:22:11;;;;;;;39.42;17.60;;;2.90;1.00;;;;;;5046547;28;20447;-59
2023/02/06 05:24:37;;;;;;;36.47;16.00;;;4.40;1.00;;;;;;5061897;28;20431;-59
2023/02/06 05:27:03;;;;;;;33.58;15.88;;;2.90;1.00;;;;;;5069691;28;20405;-59
2023/02/06 05:29:28;;;;;;;36.25;15.85;;;2.90;1.00;;;;;;5068656;28;20462;-59
2023/02/06 05:31:55;;;;;;;28.90;14.70;;;2.90;1.00;;;;;;5070246;28;20752;-59
2023/02/06 05:34:20;;;;;;;38.10;17.67;;;4.10;99.90;;;;;;5068857;28;20734;-59
2023/02/06 05:36:46;;;;;;;35.07;15.00;;;4.40;99.90;;;;;;5069572;28;20494;-59
2023/02/06 05:39:12;;;;;;;32.85;16.98;;;2.70;1.00;;;;;;5069985;28;20865;-58
2023/02/06 05:41:37;;;;;;;40.17;16.93;;;2.60;1.00;;;;;;5068865;28;20951;-58
2023/02/06 05:44:03;;;;;;;38.50;16.40;;;2.60;1.00;;;;;;5069260;28;20410;-59
2023/02/06 05:46:28;;;;;;;40.00;18.10;;;2.60;1.00;;;;;;5068930;28;20887;-59
2023/02/06 05:48:54;;;;;;;34.23;16.90;;;2.70;1.00;;;;;;5065983;28;20392;-60
2023/02/06 05:51:19;;;;;;;40.83;17.67;;;2.60;1.00;;;;;;5069172;28;20395;-58
2023/02/06 05:53:45;;;;;;;34.83;16.47;;;2.60;1.00;;;;;;5066419;28;20399;-59
2023/02/06 05:56:11;;;;;;;35.65;16.80;;;4.00;1.00;;;;;;5052475;28;20456;-59
2023/02/06 05:58:36;;;;;;;31.67;15.40;;;2.40;1.00;;;;;;5067718;28;20395;-59
2023/02/06 06:01:02;;;;;;;34.28;15.50;;;2.60;1.00;;;;;;5072818;28;20379;-60
2023/02/06 06:03:27;;;;;;;32.70;15.73;;;2.70;1.00;;;;;;5072014;28;20380;-59
2023/02/06 06:05:53;;;;;;;35.03;16.10;;;4.30;1.00;;;;;;5072910;28;20376;-59
2023/02/06 06:08:19;;;;;;;34.90;16.70;;;2.70;1.00;;;;;;5072323;28;20380;-59
2023/02/06 06:10:45;;;;;;;39.60;17.13;;;2.80;1.00;;;;;;5070574;28;20467;-59
2023/02/06 06:13:10;;;;;;;38.60;17.00;;;2.90;1.00;;;;;;5052741;28;20855;-59
2023/02/06 06:15:36;;;;;;;32.50;15.60;;;2.90;1.00;;;;;;5050660;28;20440;-58
2023/02/06 06:18:02;;;;;;;31.40;16.67;;;2.90;1.00;;;;;;5052400;28;20393;-59
2023/02/06 06:20:27;;;;;;;36.05;16.65;;;4.70;99.90;;;;;;5050011;28;20393;-59
2023/02/06 06:22:53;;;;;;;32.70;16.00;;;2.90;99.90;;;;;;5052202;28;20423;-59
2023/02/06 06:25:19;;;;;;;38.23;17.37;;;2.90;99.90;;;;;;5051379;28;20421;-58
2023/02/06 06:27:44;;;;;;;37.80;18.92;;;4.80;99.90;;;;;;5067807;28;20444;-59
2023/02/06 06:30:10;;;;;;;36.10;17.70;;;2.90;99.90;;;;;;5072293;28;20701;-59
2023/02/06 06:32:36;;;;;;;34.30;16.30;;;2.90;99.90;;;;;;5071532;28;20382;-59
2023/02/06 06:35:01;;;;;;;35.73;15.53;;;2.90;99.90;;;;;;5072322;28;20740;-59
2023/02/06 06:37:27;;;;;;;36.35;18.17;;;2.90;99.90;;;;;;5071001;28;20402;-58
2023/02/06 06:39:53;;;;;;;33.37;16.67;;;2.80;99.90;;;;;;5067091;28;20416;-59
2023/02/06 06:42:18;;;;;;;35.70;16.90;;;2.80;99.90;;;;;;5031716;28;20869;-59
2023/02/06 06:44:44;;;;;;;33.87;15.80;;;2.80;99.90;;;;;;5031032;28;20407;-59
2023/02/06 06:47:12;;;;;;;31.60;14.40;;;4.30;99.90;;;;;;5032082;28;20832;-59
2023/02/06 06:49:38;;;;;;;32.40;13.93;;;2.80;99.90;;;;;;5031441;28;20375;-59
2023/02/06 06:52:03;;;;;;;32.20;16.45;;;4.20;99.90;;;;;;5032379;28;20485;-59
2023/02/06 06:54:29;;;;;;;37.15;17.35;;;2.80;99.90;;;;;;5031205;28;20991;-59
2023/02/06 06:56:55;;;;;;;34.90;15.97;;;2.90;99.90;;;;;;5032109;28;20876;-59
2023/02/06 06:59:20;;;;;;;35.88;17.00;;;3.60;99.90;;;;;;5031524;28;20459;-59
2023/02/06 07:01:47;;;;;;;36.50;17.93;;;2.90;99.90;;;;;;5031492;28;20391;-59
2023/02/06 07:04:13;;;;;;;34.67;15.90;;;3.80;99.90;;;;;;5038478;28;20435;-59
2023/02/06 07:06:39;;;;;;;35.93;16.20;;;3.00;99.90;;;;;;5048191;28;20493;-59
2023/02/06 07:09:04;;;;;;;32.10;16.10;;;3.00;99.90;;;;;;5051457;28;20389;-59
2023/02/06 07:11:30;;;;;;;30.87;15.90;;;3.00;99.90;;;;;;5051133;28;20735;-59
2023/02/06 07:13:55;;;;;;;34.05;15.30;;;3.00;99.90;;;;;;5051261;28;20390;-59
2023/02/06 07:16:21;;;;;;;31.80;15.20;;;3.10;99.90;;;;;;5051148;28;20439;-59
2023/02/06 07:18:47;;;;;;;33.10;15.83;;;4.80;76.40;;;;;;5051444;28;20396;-59
2023/02/06 07:21:14;;;;;;;28.98;13.43;;;3.40;1.00;;;;;;5050757;28;20388;-59
2023/02/06 07:23:40;;;;;;;29.17;13.80;;;3.30;1.00;;;;;;5050259;28;20417;-59
2023/02/06 07:26:06;;;;;;;30.13;14.98;;;4.60;99.90;;;;;;5050567;28;20402;-59
2023/02/06 07:28:32;;;;;;;28.55;13.20;;;3.20;1.00;;;;;;5050249;28;20850;-59
2023/02/06 07:31:02;;;;;;;29.65;14.60;;;3.40;1.00;;;;;;5051287;28;20377;-59
2023/02/06 07:33:28;;;;;;;31.73;15.25;;;3.40;99.90;;;;;;5050080;28;20382;-59
2023/02/06 07:35:53;;;;;;;39.50;19.20;;;3.40;99.90;;;;;;5049555;28;20377;-59
2023/02/06 07:38:19;;;;;;;35.53;15.50;;;3.60;99.90;;;;;;5050936;28;20472;-59
2023/02/06 07:40:45;;;;;;;28.33;13.85;;;4.90;2.10;;;;;;5050369;28;20393;-59
2023/02/06 07:43:10;;;;;;;27.97;13.10;;;3.60;99.90;;;;;;5051117;28;20807;-59
2023/02/06 07:45:36;;;;;;;29.17;13.98;;;3.40;99.90;;;;;;5050105;28;20418;-59
2023/02/06 07:48:06;;;;;;;30.55;13.80;;;4.20;1.00;;;;;;5051232;28;20377;-59
2023/02/06 07:50:32;;;;;;;25.38;11.95;;;3.50;40.60;;;;;;5049915;28;20435;-59
2023/02/06 07:52:58;;;;;;;26.43;11.90;;;4.00;99.90;;;;;;5051103;28;20382;-59
2023/02/06 07:55:24;;;;;;;25.10;11.77;;;3.50;99.90;;;;;;5050282;28;20393;-59
2023/02/06 07:57:49;;;;;;;22.73;10.83;;;2.70;1.00;;;;;;5051028;28;20874;-59
2023/02/06 08:00:15;;;;;;;22.08;9.50;;;3.50;11.20;;;;;;5050428;28;20420;-59
2023/02/06 08:02:41;;;;;;;22.02;10.75;;;3.50;1.00;;;;;;5049843;28;20421;-59
2023/02/06 08:05:07;;;;;;;22.60;10.45;;;5.50;1.00;;;;;;5050401;28;20471;-60
2023/02/06 08:07:33;;;;;;;26.05;11.80;;;3.70;1.00;;;;;;5049641;28;20378;-59
2023/02/06 08:09:58;;;;;;;23.67;10.73;;;4.00;99.90;;;;;;5050479;28;20436;-59
2023/02/06 08:12:24;;;;;;;20.75;9.85;;;3.70;99.90;;;;;;5049537;28;20405;-59
2023/02/06 08:14:50;;;;;;;21.70;9.83;;;3.70;99.90;;;;;;5050264;28;20382;-59
2023/02/06 08:17:16;;;;;;;20.10;8.50;;;4.90;99.90;;;;;;5049834;28;20868;-59
2023/02/06 08:19:41;;;;;;;21.20;10.38;;;4.90;99.90;;;;;;5049140;28;20401;-59
2023/02/06 08:22:07;;;;;;;19.60;9.52;;;3.70;75.50;;;;;;5030354;28;20388;-59
2023/02/06 08:24:33;;;;;;;18.23;9.30;;;5.00;93.00;;;;;;5029354;28;20427;-59
2023/02/06 08:26:59;;;;;;;24.40;9.80;;;4.00;76.00;;;;;;5030060;28;20525;-59
2023/02/06 08:29:25;;;;;;;19.60;8.32;;;4.30;1.00;;;;;;5029502;28;20390;-59
2023/02/06 08:31:51;;;;;;;19.70;8.88;;;3.80;1.00;;;;;;5029952;28;20781;-59
2023/02/06 08:34:16;;;;;;;17.52;8.10;;;3.80;1.00;;;;;;5030016;28;20395;-59
2023/02/06 08:36:42;;;;;;;20.10;8.83;;;3.90;1.00;;;;;;5028914;28;20405;-59
2023/02/06 08:39:12;;;;;;;15.87;6.90;;;4.00;1.00;;;;;;5044552;28;20467;-59
2023/02/06 08:41:39;;;;;;;16.70;6.65;;;5.40;1.00;;;;;;5049151;28;20386;-59
2023/02/06 08:44:10;;;;;;;14.05;6.47;;;3.90;1.00;;;;;;5049849;28;20488;-59
2023/02/06 08:46:36;;;;;;;15.35;7.10;;;4.00;1.00;;;;;;5049236;28;20374;-59
2023/02/06 08:49:07;;;;;;;13.70;6.38;;;4.80;99.90;;;;;;5050019;28;20579;-59
2023/02/06 08:51:34;;;;;;;15.23;5.60;;;4.10;99.90;;;;;;5048854;28;20385;-60
2023/02/06 08:54:03;;;;;;;12.35;6.35;;;4.20;99.90;;;;;;5049888;28;20385;-60
2023/02/06 08:56:30;;;;;;;14.07;6.22;;;4.20;99.90;;;;;;5048633;28;20386;-59
2023/02/06 08:58:58;;;;;;;14.70;6.68;;;4.00;99.90;;;;;;5049970;28;20386;-59
2023/02/06 09:01:24;;;;;;;14.85;7.15;;;4.00;99.90;;;;;;5048944;28;20468;-58
2023/02/06 09:03:54;;;;;;;13.30;6.90;;;4.20;99.90;;;;;;5050150;28;20451;-59
2023/02/06 09:06:20;;;;;;;13.85;6.13;;;5.10;99.90;;;;;;5049577;28;20468;-59
2023/02/06 09:08:45;;;;;;;20.67;8.63;;;4.40;99.90;;;;;;5049036;28;20496;-59
2023/02/06 09:11:14;;;;;;;13.27;5.53;;;4.40;99.90;;;;;;5049455;28;20392;-60
2023/02/06 09:13:41;;;;;;;13.68;6.50;;;4.80;99.90;;;;;;5037688;28;20413;-59
2023/02/06 09:16:07;;;;;;;13.25;5.97;;;4.50;99.90;;;;;;5049515;28;20381;-59
2023/02/06 09:18:33;;;;;;;13.30;5.88;;;5.70;99.90;;;;;;5048800;28;20390;-59
2023/02/06 09:21:03;;;;;;;12.25;5.25;;;4.40;99.90;;;;;;5048058;28;20385;-59
2023/02/06 09:23:29;;;;;;;11.68;5.30;;;4.40;99.90;;;;;;5048209;28;20377;-59
2023/02/06 09:25:55;;;;;;;10.00;4.23;;;4.30;99.90;;;;;;5049394;28;20420;-59
2023/02/06 09:28:20;;;;;;;11.68;4.60;;;5.60;99.90;;;;;;5049931;28;20397;-59
2023/02/06 09:30:48;;;;;;;14.93;5.40;;;6.20;99.90;;;;;;5052827;28;20393;-59
2023/02/06 09:33:13;;;;;;;13.35;5.80;;;4.30;99.90;;;;;;5053823;28;20472;-59
2023/02/06 09:35:39;;;;;;;12.30;5.50;;;5.70;99.90;;;;;;5052616;28;20985;-59
2023/02/06 09:38:04;;;;;;;15.60;6.10;;;4.20;99.90;;;;;;5053118;28;20475;-59
2023/02/06 09:40:32;;;;;;;9.63;4.70;;;4.20;99.90;;;;;;5052671;28;20393;-59
2023/02/06 09:42:59;;;;;;;12.65;5.80;;;4.30;99.90;;;;;;5053270;28;20415;-59
2023/02/06 09:45:29;;;;;;;14.48;5.40;;;4.30;99.90;;;;;;5052425;28;20467;-59
2023/02/06 09:48:04;;;;;;;14.27;5.07;;;4.20;99.90;;;;;;5053341;28;20415;-59
2023/02/06 09:50:35;;;;;;;12.27;5.00;;;4.20;99.90;;;;;;5052460;28;20389;-59
2023/02/06 09:53:22;;;;;;;16.55;6.50;;;4.40;99.90;;;;;;5052787;28;20413;-60
2023/02/06 09:56:33;;;;;;;13.93;5.40;;;4.30;99.90;;;;;;5052303;28;20397;-59
2023/02/06 09:59:07;;;;;;;13.63;6.10;;;4.40;99.90;;;;;;5052823;28;20738;-59
2023/02/06 10:01:39;;;;;;;15.32;5.57;;;4.50;99.90;;;;;;5052337;28;20389;-59
2023/02/06 10:04:36;;;;;;;11.93;5.28;;;4.70;99.90;;;;;;5052973;28;20405;-59
2023/02/06 10:07:17;;;;;;;15.65;5.40;;;4.90;99.30;;;;;;5051827;28;20455;-59
2023/02/06 10:09:52;;;;;;;13.50;5.30;;;4.80;97.30;;;;;;5051808;28;20385;-59
2023/02/06 10:12:26;;;;;;;12.18;5.60;;;6.30;15.20;;;;;;5052678;28;20476;-59
2023/02/06 10:14:57;;;;;;;11.63;5.88;;;4.80;2.60;;;;;;5052971;28;20401;-59
2023/02/06 10:17:27;;;;;;;13.10;5.38;;;6.30;9.80;;;;;;5052555;28;20394;-59
2023/02/06 10:20:01;;;;;;;14.95;5.28;;;4.80;4.00;;;;;;5053292;28;20471;-59
2023/02/06 10:22:32;;;;;;;13.95;6.03;;;6.80;5.10;;;;;;5052073;28;20389;-59
2023/02/06 10:25:13;;;;;;;12.38;5.30;;;5.00;4.40;;;;;;5052269;28;20437;-59
2023/02/06 10:27:42;;;;;;;12.75;5.30;;;5.20;1.00;;;;;;5051499;28;20439;-59
2023/02/06 10:30:18;;;;;;;11.20;4.50;;;6.70;1.00;;;;;;5052584;28;20408;-59
2023/02/06 10:32:57;;;;;;;15.38;5.72;;;5.10;1.00;;;;;;5051761;28;20393;-59
2023/02/06 10:35:27;;;;;;;13.80;5.47;;;5.20;1.00;;;;;;5052174;28;20785;-59
2023/02/06 10:37:55;;;;;;;12.10;4.80;;;6.10;1.00;;;;;;5052393;28;20904;-59
2023/02/06 10:40:37;;;;;;;10.68;4.40;;;5.70;1.00;;;;;;5051391;28;20793;-59
2023/02/06 10:43:17;;;;;;;10.15;3.92;;;5.80;1.00;;;;;;5052309;28;20433;-59
2023/02/06 10:45:49;;;;;;;11.73;4.23;;;6.70;1.00;;;;;;5051544;28;20449;-59
2023/02/06 10:48:49;;;;;;;8.70;3.88;;;5.70;1.00;;;;;;5052069;28;20405;-59
2023/02/06 10:51:34;;;;;;;12.95;4.07;;;5.60;1.00;;;;;;4997560;28;20491;-59
2023/02/06 10:54:17;;;;;;;9.52;3.80;;;5.40;1.00;;;;;;5051975;28;20484;-59
2023/02/06 10:56:44;;;;;;;12.50;3.78;;;5.20;1.00;;;;;;5051681;28;20378;-59
2023/02/06 10:59:32;;;;;;;12.07;4.50;;;6.50;1.00;;;;;;5052033;28;20374;-59
2023/02/06 11:02:19;;;;;;;9.90;4.07;;;5.30;1.00;;;;;;5052484;28;20456;-59
2023/02/06 11:05:05;;;;;;;11.57;4.10;;;5.00;1.00;;;;;;5051123;28;20915;-59
2023/02/06 11:07:44;;;;;;;10.13;4.28;;;4.90;1.00;;;;;;5051335;28;20448;-59
2023/02/06 11:10:16;;;;;;;10.43;4.70;;;4.90;1.00;;;;;;5051947;28;20493;-59
2023/02/06 11:12:46;;;;;;;11.85;4.30;;;5.00;1.00;;;;;;5051359;28;20472;-60
2023/02/06 11:15:23;;;;;;;12.25;4.43;;;5.10;1.00;;;;;;5051590;28;20418;-59
2023/02/06 11:17:51;;;;;;;9.77;4.03;;;7.10;1.00;;;;;;5051099;28;20382;-59
2023/02/06 11:20:29;;;;;;;13.27;4.90;;;5.60;1.00;;;;;;5050530;28;20381;-60
2023/02/06 11:22:55;;;;;;;12.13;4.80;;;5.20;1.00;;;;;;5051717;28;20389;-59
2023/02/06 11:25:29;;;;;;;12.57;5.28;;;5.00;1.00;;;;;;5051198;28;20440;-59
2023/02/06 11:27:56;;;;;;;10.70;5.60;;;4.80;1.00;;;;;;5051522;28;20936;-59
2023/02/06 11:30:38;;;;;;;10.43;4.93;;;5.00;1.00;;;;;;5051311;28;20389;-59
2023/02/06 11:33:07;;;;;;;16.80;5.10;;;6.80;1.00;;;;;;5051879;28;20386;-59
2023/02/06 11:35:36;;;;;;;13.00;5.13;;;5.50;1.00;;;;;;5050637;28;20396;-59
2023/02/06 11:38:07;;;;;;;14.32;5.40;;;5.30;1.00;;;;;;5051074;28;20492;-59
2023/02/06 11:40:33;;;;;;;11.27;4.80;;;6.60;1.00;;;;;;5050346;28;20416;-59
2023/02/06 11:43:19;;;;;;;11.30;4.53;;;5.20;1.00;;;;;;5051187;28;20497;-60
2023/02/06 11:45:47;;;;;;;11.82;4.60;;;5.20;1.00;;;;;;5050866;28;21027;-59
2023/02/06 11:48:37;;;;;;;9.38;3.88;;;5.10;1.00;;;;;;5051045;28;20451;-59
2023/02/06 11:51:04;;;;;;;11.23;4.57;;;6.80;1.00;;;;;;5051018;28;20392;-60
2023/02/06 11:53:32;;;;;;;12.77;5.32;;;5.50;1.00;;;;;;5049039;28;20418;-59
2023/02/06 11:56:17;;;;;;;11.90;4.80;;;6.00;1.00;;;;;;5050910;28;20397;-60
2023/02/06 11:58:43;;;;;;;9.53;3.80;;;5.50;1.00;;;;;;5049912;28;20816;-59
2023/02/06 12:01:18;;;;;;;10.90;3.95;;;5.40;1.00;;;;;;5051028;28;20412;-59
2023/02/06 12:03:54;;;;;;;13.48;4.30;;;7.00;1.00;;;;;;5049684;28;20421;-59
2023/02/06 12:06:32;;;;;;;9.07;3.95;;;4.90;1.00;;;;;;5050821;28;20382;-59
2023/02/06 12:09:07;;;;;;;12.07;3.80;;;4.90;1.00;;;;;;5050203;28;20392;-59
2023/02/06 12:11:42;;;;;;;17.77;5.68;;;5.00;1.00;;;;;;5049884;28;20410;-60
2023/02/06 12:14:19;;;;;;;10.20;4.17;;;4.90;1.00;;;;;;5050286;28;20512;-59
2023/02/06 12:16:46;;;;;;;12.30;4.75;;;4.80;1.00;;;;;;5050001;28;20385;-59
2023/02/06 12:19:24;;;;;;;8.25;3.90;;;6.00;1.00;;;;;;5050518;28;20374;-60
2023/02/06 12:22:01;;;;;;;9.32;3.88;;;4.70;1.00;;;;;;5049895;28;20437;-59
2023/02/06 12:24:39;;;;;;;11.45;5.05;;;4.70;1.00;;;;;;5049648;28;20433;-59
2023/02/06 12:27:20;;;;;;;10.67;4.30;;;4.70;1.00;;;;;;5050222;28;20475;-60
2023/02/06 12:30:21;;;;;;;10.90;4.00;;;4.70;1.00;;;;;;5047568;28;21502;-59
2023/02/06 12:32:51;;;;;;;9.32;3.88;;;4.40;1.00;;;;;;5049522;28;20384;-59
2023/02/06 12:35:34;;;;;;;10.93;3.65;;;5.90;1.00;;;;;;5050352;28;20389;-59
2023/02/06 12:38:06;;;;;;;10.32;3.75;;;4.40;1.00;;;;;;5050003;28;20401;-59
2023/02/06 12:40:55;;;;;;;9.77;3.95;;;5.40;1.00;;;;;;5049654;28;20417;-59
2023/02/06 12:43:21;;;;;;;10.05;3.60;;;5.50;1.00;;;;;;5050155;28;20468;-60
2023/02/06 12:46:02;;;;;;;10.65;3.60;;;4.90;1.00;;;;;;5049252;28;20516;-59
2023/02/06 12:48:55;;;;;;;9.80;3.17;;;4.50;1.00;;;;;;5049772;28;20399;-59
2023/02/06 12:51:27;;;;;;;11.60;3.92;;;4.60;1.00;;;;;;5049889;28;20389;-59
2023/02/06 12:54:02;;;;;;;10.68;3.70;;;5.90;1.00;;;;;;5049452;28;20416;-59
2023/02/06 12:56:31;;;;;;;11.70;3.90;;;4.60;1.00;;;;;;5049450;28;20854;-59
2023/02/06 12:58:59;;;;;;;13.25;3.67;;;4.60;1.00;;;;;;5049619;28;20378;-59
2023/02/06 13:01:56;;;;;;;10.20;3.45;;;5.90;1.00;;;;;;5049734;28;20428;-59
2023/02/06 13:04:26;;;;;;;11.80;4.20;;;4.50;1.00;;;;;;5049041;28;20413;-59